Time;durP1;ratioP1;P1;durP2;ratioP2;P2;SDS_P1;SDS_P2;PMS_P1;PMS_P2;Temp;Humidity;BMP_temperature;BMP_pressure;BME280_temperature;BME280_humidity;BME280_pressure;Samples;Min_cycle;Max_cycle;Signal;HPM_P1;HPM_P2
2023/06/16 00:01:09;;;;;;;0.60;0.60;;;;;;;21.42;55.51;100998.47;5024468;28;20046;-66
2023/06/16 00:03:35;;;;;;;1.20;0.85;;;;;;;21.38;56.19;101000.50;5022204;28;20041;-65
2023/06/16 00:06:03;;;;;;;1.50;0.80;;;;;;;21.32;56.50;100999.44;4995004;28;20033;-65
2023/06/16 00:08:33;;;;;;;1.15;0.82;;;;;;;21.39;57.25;101010.25;5012571;28;20486;-66
2023/06/16 00:10:58;;;;;;;0.80;0.80;;;;;;;21.43;57.15;100996.47;4999744;28;20033;-64
2023/06/16 00:13:24;;;;;;;0.98;0.90;;;;;;;21.42;56.68;100994.94;5021561;28;20040;-65
2023/06/16 00:15:49;;;;;;;0.70;0.70;;;;;;;21.43;56.88;100999.22;5030369;28;20487;-65
2023/06/16 00:18:16;;;;;;;1.30;0.93;;;;;;;21.20;57.27;100997.28;5029997;28;20057;-65
2023/06/16 00:20:42;;;;;;;4.15;0.70;;;;;;;21.24;57.81;100998.00;5006551;28;20037;-67
2023/06/16 00:23:11;;;;;;;1.60;1.05;;;;;;;21.31;57.40;100995.13;5023889;28;20044;-66
2023/06/16 00:25:36;;;;;;;3.20;1.10;;;;;;;21.30;58.30;100993.59;5015337;28;20037;-66
2023/06/16 00:28:02;;;;;;;1.25;0.75;;;;;;;21.30;58.40;100988.13;5021909;28;20510;-65
2023/06/16 00:30:27;;;;;;;1.00;0.75;;;;;;;21.22;58.60;100980.44;5008599;28;20430;-66
2023/06/16 00:32:53;;;;;;;1.27;0.80;;;;;;;21.20;58.63;100983.59;5001958;28;20722;-64
2023/06/16 00:35:18;;;;;;;0.65;0.50;;;;;;;21.14;58.50;100979.78;5014283;28;20038;-65
2023/06/16 00:37:44;;;;;;;1.10;0.60;;;;;;;21.13;58.49;100983.72;4987505;28;20088;-64
2023/06/16 00:40:10;;;;;;;1.10;0.65;;;;;;;21.16;58.51;100987.56;4992026;28;20512;-66
2023/06/16 00:42:35;;;;;;;3.00;0.75;;;;;;;21.20;58.36;100994.56;5027434;28;20044;-66
2023/06/16 00:45:01;;;;;;;0.98;0.70;;;;;;;21.23;58.16;100998.44;5019592;28;20069;-66
2023/06/16 00:47:27;;;;;;;1.75;0.98;;;;;;;21.27;58.10;100983.44;5006691;28;20683;-65
2023/06/16 00:50:12;;;;;;;0.90;0.77;;;;;;;21.20;58.38;100988.28;5029025;28;20040;-66
2023/06/16 00:52:38;;;;;;;4.07;0.88;;;;;;;20.99;58.73;100986.69;4998277;28;20050;-64
2023/06/16 00:55:08;;;;;;;1.08;0.82;;;;;;;20.95;59.03;100987.91;4999262;28;20654;-65
2023/06/16 00:57:34;;;;;;;2.95;0.88;;;;;;;20.90;59.39;100980.19;4991111;28;20518;-65
2023/06/16 01:00:00;;;;;;;0.80;0.80;;;;;;;20.90;58.89;100975.50;4997900;28;20049;-66
2023/06/16 01:02:26;;;;;;;1.75;0.85;;;;;;;21.04;58.64;100975.25;4998213;28;20030;-66
2023/06/16 01:04:54;;;;;;;1.20;1.10;;;;;;;21.10;58.38;100981.81;5013861;28;20049;-66
2023/06/16 01:07:28;;;;;;;0.63;0.50;;;;;;;20.95;59.43;100988.69;4994927;28;20502;-66
2023/06/16 01:10:15;;;;;;;2.03;1.00;;;;;;;21.03;59.38;100976.47;5002134;28;20785;-66
2023/06/16 01:13:07;;;;;;;1.92;1.05;;;;;;;21.03;59.12;100984.69;4998824;28;20040;-66
2023/06/16 01:15:35;;;;;;;1.45;0.82;;;;;;;21.00;59.50;100974.50;5004925;28;20117;-66
2023/06/16 01:18:02;;;;;;;1.17;0.63;;;;;;;21.00;59.82;100974.50;5004978;28;20036;-66
2023/06/16 01:20:57;;;;;;;0.90;0.75;;;;;;;20.94;60.64;100972.69;4982034;28;20196;-66
2023/06/16 01:23:33;;;;;;;4.20;0.90;;;;;;;20.99;60.70;100977.69;4994442;28;20046;-66
2023/06/16 01:26:01;;;;;;;1.33;0.82;;;;;;;20.89;60.84;100975.88;4992208;28;20033;-66
2023/06/16 01:28:30;;;;;;;0.73;0.60;;;;;;;20.85;61.05;100983.41;5001738;28;20537;-66
2023/06/16 01:30:58;;;;;;;1.52;0.90;;;;;;;20.82;61.41;100985.00;5025902;28;20025;-66
2023/06/16 01:33:26;;;;;;;1.55;1.00;;;;;;;20.81;61.82;100983.44;5012025;28;20029;-63
2023/06/16 01:35:54;;;;;;;1.40;0.80;;;;;;;20.82;61.62;100979.53;5024660;28;20025;-64
2023/06/16 01:38:22;;;;;;;0.95;0.88;;;;;;;20.90;61.42;100978.22;5022874;28;20087;-63
2023/06/16 01:40:51;;;;;;;1.08;0.68;;;;;;;20.80;62.26;100970.19;5020363;28;20478;-66
2023/06/16 01:43:16;;;;;;;1.73;1.00;;;;;;;20.77;62.39;100969.03;5024963;28;20021;-65
2023/06/16 01:45:43;;;;;;;1.00;0.90;;;;;;;20.71;62.31;100972.69;5016038;28;20414;-64
2023/06/16 01:48:09;;;;;;;1.40;0.77;;;;;;;20.71;62.75;100972.69;5018590;28;20026;-64
2023/06/16 01:50:34;;;;;;;2.33;0.68;;;;;;;20.72;62.62;100974.22;5018716;28;20030;-64
2023/06/16 01:53:00;;;;;;;1.00;0.80;;;;;;;20.72;62.71;100979.69;5019190;28;20053;-65
2023/06/16 01:55:25;;;;;;;2.42;0.90;;;;;;;20.68;63.50;100977.00;5009969;28;20136;-63
2023/06/16 01:57:53;;;;;;;1.42;0.88;;;;;;;20.71;63.45;100978.94;5021343;28;20030;-63
2023/06/16 02:00:46;;;;;;;1.90;0.82;;;;;;;20.59;64.41;100980.28;5008011;28;20034;-65
2023/06/16 02:03:24;;;;;;;1.17;1.00;;;;;;;20.51;64.67;100969.84;5006073;28;20037;-64
2023/06/16 02:05:52;;;;;;;0.85;0.80;;;;;;;20.60;64.29;100975.56;5026844;28;20575;-66
2023/06/16 02:08:23;;;;;;;2.05;0.80;;;;;;;20.60;64.21;100970.88;5021150;28;20041;-65
2023/06/16 02:10:50;;;;;;;1.60;0.90;;;;;;;20.62;64.93;100987.66;5019734;28;20034;-66
2023/06/16 02:13:15;;;;;;;1.05;0.80;;;;;;;20.73;64.75;100973.78;5033526;28;20060;-65
2023/06/16 02:15:41;;;;;;;1.40;0.90;;;;;;;20.72;64.76;100972.25;5031457;28;20071;-64
2023/06/16 02:18:09;;;;;;;1.70;0.80;;;;;;;20.54;65.04;100967.06;5011837;28;20045;-65
2023/06/16 02:20:36;;;;;;;1.25;0.90;;;;;;;20.42;64.66;100967.63;5026740;28;20487;-66
2023/06/16 02:23:01;;;;;;;1.80;0.75;;;;;;;20.54;63.97;100974.50;5014428;28;20024;-63
2023/06/16 02:25:27;;;;;;;1.65;0.90;;;;;;;20.44;64.82;100973.47;5028724;28;20033;-65
2023/06/16 02:27:52;;;;;;;7.30;1.00;;;;;;;20.43;65.42;100968.41;5032224;28;20168;-66
2023/06/16 02:30:18;;;;;;;1.38;1.10;;;;;;;20.63;64.37;100972.03;5033370;28;20025;-65
2023/06/16 02:32:47;;;;;;;1.83;0.90;;;;;;;20.63;62.80;100961.81;5000025;28;20030;-64
2023/06/16 02:35:12;;;;;;;0.93;0.70;;;;;;;20.47;63.95;100964.44;5010973;28;20040;-65
2023/06/16 02:37:38;;;;;;;2.05;0.90;;;;;;;20.53;64.11;100971.00;5020682;28;20025;-65
2023/06/16 02:40:25;;;;;;;0.75;0.70;;;;;;;20.62;63.43;100970.47;5037814;28;20035;-65
2023/06/16 02:42:50;;;;;;;2.45;1.10;;;;;;;20.69;62.94;100973.09;4921899;29;20043;-65
2023/06/16 02:45:17;;;;;;;1.67;0.82;;;;;;;20.73;62.56;100965.56;4952498;29;20787;-66
2023/06/16 02:47:43;;;;;;;2.63;0.90;;;;;;;20.61;61.90;100964.19;4938466;28;20083;-64
2023/06/16 02:50:09;;;;;;;1.08;0.85;;;;;;;20.65;62.12;100975.88;4948879;28;20031;-64
2023/06/16 02:52:36;;;;;;;1.27;0.88;;;;;;;20.61;63.31;100975.16;4933483;28;20046;-64
2023/06/16 02:55:03;;;;;;;1.02;0.80;;;;;;;20.62;64.93;100970.47;4937515;29;20762;-64
2023/06/16 02:57:38;;;;;;;1.55;0.90;;;;;;;20.59;66.84;100971.31;4929044;29;20050;-62
2023/06/16 03:00:08;;;;;;;0.73;0.60;;;;;;;20.54;67.60;100969.00;4931667;29;20126;-63
2023/06/16 03:02:38;;;;;;;1.40;1.10;;;;;;;20.54;67.82;100967.06;4935558;28;20030;-63
2023/06/16 03:05:04;;;;;;;1.00;0.75;;;;;;;20.53;67.64;100967.47;4945969;28;20028;-63
2023/06/16 03:07:33;;;;;;;1.08;0.82;;;;;;;20.53;68.20;100975.69;4945319;29;20532;-63
2023/06/16 03:10:02;;;;;;;1.17;0.82;;;;;;;20.52;68.14;100971.38;4931641;29;20028;-62
2023/06/16 03:12:40;;;;;;;1.02;0.65;;;;;;;20.55;67.82;100970.56;4925565;28;20125;-61
2023/06/16 03:15:08;;;;;;;1.92;1.00;;;;;;;20.40;68.67;100972.00;4929976;29;20039;-62
2023/06/16 03:17:35;;;;;;;1.33;0.70;;;;;;;20.38;69.08;100966.91;4939576;28;20040;-62
2023/06/16 03:20:01;;;;;;;1.60;0.82;;;;;;;20.40;68.79;100961.03;4977930;28;20041;-63
2023/06/16 03:22:52;;;;;;;1.30;0.63;;;;;;;20.41;67.42;100960.63;5004156;28;20399;-61
2023/06/16 03:25:17;;;;;;;0.98;0.85;;;;;;;20.46;65.73;100964.88;5023904;28;20029;-62
2023/06/16 03:27:46;;;;;;;1.60;0.75;;;;;;;20.53;64.79;100967.47;5006796;28;20061;-63
2023/06/16 03:30:16;;;;;;;2.72;1.08;;;;;;;20.59;64.66;100965.81;5003811;28;20453;-63
2023/06/16 03:32:54;;;;;;;2.33;1.08;;;;;;;20.63;63.23;100966.53;5020863;28;20516;-64
2023/06/16 03:35:23;;;;;;;0.70;0.60;;;;;;;20.63;63.29;100963.81;5017021;28;20120;-64
2023/06/16 03:37:51;;;;;;;0.85;0.68;;;;;;;20.60;63.51;100970.09;5003703;28;20486;-63
2023/06/16 03:40:18;;;;;;;1.80;1.13;;;;;;;20.58;63.71;100969.75;5005364;28;20128;-66
2023/06/16 03:42:44;;;;;;;1.65;0.93;;;;;;;20.62;63.08;100976.72;5011176;28;20120;-64
2023/06/16 03:45:11;;;;;;;1.23;0.82;;;;;;;20.55;63.62;100971.34;4997352;28;20136;-62
2023/06/16 03:47:36;;;;;;;1.17;0.70;;;;;;;20.59;64.09;100969.34;4998670;28;20550;-63
2023/06/16 03:50:03;;;;;;;0.98;0.77;;;;;;;20.63;65.18;100950.13;5000093;28;20116;-62
2023/06/16 03:52:30;;;;;;;1.15;0.80;;;;;;;20.58;66.03;100940.41;4998775;28;20096;-63
2023/06/16 03:54:57;;;;;;;1.20;0.80;;;;;;;20.68;66.75;100927.72;5009714;28;20029;-63
2023/06/16 03:57:22;;;;;;;1.15;0.80;;;;;;;20.68;66.80;100925.00;5009918;28;22449;-63
2023/06/16 03:59:49;;;;;;;1.73;0.88;;;;;;;20.31;68.03;100934.19;5013853;28;20561;-64
2023/06/16 04:02:16;;;;;;;2.13;0.75;;;;;;;20.12;70.11;100934.03;4993860;28;20068;-64
2023/06/16 04:04:46;;;;;;;1.35;0.95;;;;;;;20.11;70.59;100930.53;5012768;28;20029;-62
2023/06/16 04:07:13;;;;;;;1.58;0.90;;;;;;;20.27;70.34;100930.72;5010874;28;20132;-63
2023/06/16 04:09:39;;;;;;;2.58;1.00;;;;;;;20.20;71.31;100938.25;5022690;28;20033;-64
2023/06/16 04:12:05;;;;;;;1.60;0.88;;;;;;;20.08;73.62;100930.59;5009822;28;20096;-63
2023/06/16 04:14:33;;;;;;;0.90;0.63;;;;;;;20.07;74.60;100940.78;5006047;28;20082;-64
2023/06/16 04:16:59;;;;;;;1.60;0.98;;;;;;;19.96;76.56;100936.59;5009747;28;20029;-62
2023/06/16 04:19:28;;;;;;;0.88;0.70;;;;;;;19.97;77.11;100935.44;4969201;28;20752;-63
2023/06/16 04:21:54;;;;;;;2.35;1.33;;;;;;;20.06;75.88;100943.91;4976474;28;20347;-64
2023/06/16 04:24:23;;;;;;;1.00;0.80;;;;;;;19.93;75.91;100949.16;4968499;28;20025;-64
2023/06/16 04:26:52;;;;;;;1.48;0.90;;;;;;;19.94;76.54;100942.50;5007301;28;20037;-63
2023/06/16 04:29:20;;;;;;;2.83;0.98;;;;;;;19.92;75.49;100938.63;5011580;28;20025;-64
2023/06/16 04:31:50;;;;;;;1.85;1.05;;;;;;;19.79;76.71;100939.19;5002780;28;20541;-63
2023/06/16 04:34:17;;;;;;;1.00;0.90;;;;;;;19.80;77.63;100937.22;5014197;28;20048;-63
2023/06/16 04:36:44;;;;;;;1.10;0.90;;;;;;;19.83;77.50;100936.41;5001982;28;20075;-61
2023/06/16 04:39:26;;;;;;;1.10;0.80;;;;;;;19.88;77.75;100932.44;5008693;28;20441;-63
2023/06/16 04:41:52;;;;;;;1.73;1.20;;;;;;;19.94;77.69;100926.09;5009014;28;20037;-64
2023/06/16 04:44:19;;;;;;;1.10;0.80;;;;;;;20.00;77.72;100923.66;5031025;22;20127;-60
2023/06/16 04:46:47;;;;;;;2.10;1.10;;;;;;;20.07;77.27;100924.38;4984758;28;20061;-56
2023/06/16 04:49:13;;;;;;;1.55;0.95;;;;;;;20.14;76.81;100927.00;4976690;28;20492;-53
2023/06/16 04:51:39;;;;;;;1.33;1.00;;;;;;;20.05;77.14;100925.97;4979771;28;20044;-58
2023/06/16 04:54:05;;;;;;;2.35;1.20;;;;;;;20.04;76.67;100932.59;4960138;28;20024;-60
2023/06/16 04:56:31;;;;;;;1.73;1.13;;;;;;;20.08;76.91;100941.53;4980147;28;20081;-60
2023/06/16 04:58:57;;;;;;;3.70;1.08;;;;;;;20.12;77.40;100943.03;4978738;28;20038;-54
2023/06/16 05:01:26;;;;;;;1.83;0.85;;;;;;;20.18;77.88;100946.88;4987197;28;20026;-59
2023/06/16 05:03:52;;;;;;;1.67;1.05;;;;;;;20.29;77.37;100947.50;4985721;28;20457;-55
2023/06/16 05:06:18;;;;;;;1.60;1.17;;;;;;;20.38;77.04;100955.97;4975987;28;20041;-57
2023/06/16 05:08:44;;;;;;;1.58;1.10;;;;;;;20.49;74.98;100955.81;4969604;28;20384;-53
2023/06/16 05:11:12;;;;;;;2.53;1.25;;;;;;;20.25;75.44;100960.47;4971707;28;20050;-56
2023/06/16 05:13:38;;;;;;;1.20;1.00;;;;;;;20.33;75.74;100958.38;4963210;28;20022;-57
2023/06/16 05:16:03;;;;;;;2.10;1.38;;;;;;;20.21;74.32;100953.50;4951110;28;20038;-58
2023/06/16 05:18:29;;;;;;;1.95;1.25;;;;;;;20.26;74.47;100959.28;4983539;28;20472;-54
2023/06/16 05:20:56;;;;;;;2.05;1.20;;;;;;;20.26;73.91;100958.50;4985534;28;20158;-53
2023/06/16 05:23:21;;;;;;;4.55;1.17;;;;;;;20.30;72.73;100953.75;4976608;28;20802;-59
2023/06/16 05:25:47;;;;;;;1.42;1.20;;;;;;;20.14;73.89;100954.34;4952966;28;20050;-59
2023/06/16 05:28:12;;;;;;;1.45;1.30;;;;;;;20.29;74.58;100952.19;4969558;28;20038;-57
2023/06/16 05:30:38;;;;;;;1.30;1.13;;;;;;;20.47;75.33;100958.19;4964203;28;20036;-60
2023/06/16 05:33:05;;;;;;;2.88;1.60;;;;;;;20.62;75.25;100952.06;4951969;28;20054;-59
2023/06/16 05:35:31;;;;;;;2.30;1.38;;;;;;;20.70;75.33;100952.72;4963524;28;20144;-56
2023/06/16 05:37:57;;;;;;;3.85;1.08;;;;;;;20.62;74.96;100945.81;4972608;28;20566;-57
2023/06/16 05:40:23;;;;;;;2.22;1.15;;;;;;;20.70;75.04;100952.72;4980348;28;20026;-59
2023/06/16 05:42:49;;;;;;;2.42;1.60;;;;;;;20.84;74.03;100949.78;4985537;28;20030;-56
2023/06/16 05:45:15;;;;;;;3.38;1.40;;;;;;;20.88;73.88;100942.28;4959852;28;20507;-57
2023/06/16 05:47:41;;;;;;;1.80;1.08;;;;;;;20.88;73.52;100938.75;4974053;28;20034;-60
2023/06/16 05:50:08;;;;;;;2.75;1.40;;;;;;;20.84;73.93;100941.56;4980867;28;20136;-57
2023/06/16 05:52:34;;;;;;;3.50;1.50;;;;;;;20.87;74.07;100932.50;4973610;28;20527;-54
2023/06/16 05:55:04;;;;;;;2.65;1.40;;;;;;;20.83;74.01;100925.53;4985163;28;20150;-57
2023/06/16 05:57:38;;;;;;;3.38;1.58;;;;;;;20.81;74.45;100920.47;4971041;28;20042;-60
2023/06/16 06:00:05;;;;;;;2.80;1.48;;;;;;;20.91;73.66;100924.22;4992977;28;20497;-56
2023/06/16 06:02:39;;;;;;;2.20;1.17;;;;;;;20.87;73.63;100920.75;4987057;28;20150;-57
2023/06/16 06:05:06;;;;;;;4.10;1.55;;;;;;;20.87;73.69;100915.28;4972592;28;20030;-58
2023/06/16 06:07:32;;;;;;;2.20;1.50;;;;;;;20.94;73.58;100904.22;4979348;28;20037;-57
2023/06/16 06:09:57;;;;;;;1.80;1.15;;;;;;;20.92;72.42;100912.84;4977120;28;20073;-58
2023/06/16 06:12:23;;;;;;;1.75;1.40;;;;;;;20.96;72.19;100912.78;4982578;28;20030;-58
2023/06/16 06:14:48;;;;;;;1.70;1.10;;;;;;;20.98;71.87;100900.19;4981991;28;20034;-57
2023/06/16 06:17:14;;;;;;;1.45;1.00;;;;;;;20.94;71.47;100909.69;4987416;28;20038;-59
2023/06/16 06:19:40;;;;;;;3.10;1.30;;;;;;;20.94;71.72;100915.94;4974120;28;20117;-58
2023/06/16 06:22:06;;;;;;;2.05;0.95;;;;;;;20.96;72.11;100916.31;4995380;28;20081;-60
2023/06/16 06:24:33;;;;;;;2.08;1.38;;;;;;;21.06;72.24;100917.34;4980096;28;20034;-56
2023/06/16 06:26:58;;;;;;;2.78;1.42;;;;;;;21.06;72.35;100912.59;4970613;28;20030;-60
2023/06/16 06:29:25;;;;;;;1.83;1.40;;;;;;;21.19;71.49;100910.81;4974539;28;20061;-52
2023/06/16 06:31:51;;;;;;;2.45;1.25;;;;;;;21.30;71.95;100907.84;4987989;28;20034;-59
2023/06/16 06:34:16;;;;;;;2.33;1.30;;;;;;;21.37;71.74;100916.72;4988948;28;20032;-58
2023/06/16 06:36:42;;;;;;;3.97;1.42;;;;;;;21.42;71.84;100913.50;4987502;28;20760;-58
2023/06/16 06:39:08;;;;;;;2.45;1.55;;;;;;;21.43;71.13;100925.22;4987524;28;20400;-57
2023/06/16 06:41:55;;;;;;;2.20;1.50;;;;;;;21.30;69.44;100924.31;4993225;28;20040;-60
2023/06/16 06:44:23;;;;;;;2.60;1.73;;;;;;;21.21;70.12;100927.63;4894449;29;20064;-58
2023/06/16 06:46:49;;;;;;;3.15;1.55;;;;;;;21.37;70.30;100926.91;4914673;29;20078;-59
2023/06/16 06:49:15;;;;;;;3.35;1.98;;;;;;;21.44;71.21;100927.56;4892221;29;20067;-57
2023/06/16 06:51:41;;;;;;;4.25;2.00;;;;;;;21.58;70.49;100940.97;4917088;29;20200;-55
2023/06/16 06:54:07;;;;;;;4.25;2.13;;;;;;;21.67;70.39;100945.09;4909045;29;20127;-57
2023/06/16 06:56:33;;;;;;;4.15;2.20;;;;;;;21.81;69.68;100931.91;4913861;29;20075;-56
2023/06/16 06:58:58;;;;;;;3.45;2.20;;;;;;;21.93;69.55;100935.97;4913466;29;20039;-57
2023/06/16 07:01:24;;;;;;;4.82;1.88;;;;;;;21.86;69.49;100933.38;4917391;29;20669;-60
2023/06/16 07:03:49;;;;;;;3.75;2.20;;;;;;;21.91;69.79;100924.66;4921488;29;20106;-58
2023/06/16 07:06:15;;;;;;;4.60;2.67;;;;;;;22.10;67.96;100923.84;4919056;29;20051;-53
2023/06/16 07:08:40;;;;;;;4.65;2.25;;;;;;;22.09;68.33;100919.53;4912707;29;20189;-56
2023/06/16 07:11:06;;;;;;;3.58;1.90;;;;;;;22.02;68.24;100920.47;4912784;29;20569;-53
2023/06/16 07:13:31;;;;;;;3.42;1.80;;;;;;;22.06;68.93;100923.91;4915150;29;20028;-59
2023/06/16 07:15:57;;;;;;;4.20;2.40;;;;;;;22.17;69.16;100929.16;4909796;29;20291;-56
2023/06/16 07:18:22;;;;;;;4.40;2.42;;;;;;;22.13;69.81;100942.97;4894720;29;20396;-56
2023/06/16 07:21:08;;;;;;;4.07;2.05;;;;;;;22.25;69.15;100939.56;4932115;28;20076;-58
2023/06/16 07:23:33;;;;;;;3.22;1.73;;;;;;;22.18;68.48;100952.66;4940560;29;20681;-57
2023/06/16 07:25:59;;;;;;;2.78;1.67;;;;;;;22.07;68.20;100957.59;4931562;29;20092;-57
2023/06/16 07:28:24;;;;;;;2.95;1.58;;;;;;;22.00;68.52;100963.25;4931720;29;20115;-60
2023/06/16 07:30:52;;;;;;;3.08;1.75;;;;;;;22.16;68.17;100963.28;4929032;29;20031;-57
2023/06/16 07:33:17;;;;;;;3.70;1.60;;;;;;;22.11;69.33;100975.53;4925577;29;20047;-60
2023/06/16 07:35:43;;;;;;;2.75;1.77;;;;;;;22.26;69.71;100989.72;4926108;29;20059;-58
2023/06/16 07:38:09;;;;;;;3.08;1.60;;;;;;;22.38;69.25;100989.81;4927629;29;20039;-57
2023/06/16 07:40:34;;;;;;;2.00;1.67;;;;;;;22.32;69.46;100982.50;4925690;29;20047;-60
2023/06/16 07:43:00;;;;;;;12.10;1.85;;;;;;;22.27;68.81;100983.03;4922690;29;20562;-55
2023/06/16 07:45:25;;;;;;;4.82;1.13;;;;;;;22.34;68.60;100971.88;4930703;29;20181;-56
2023/06/16 07:47:51;;;;;;;5.30;1.77;;;;;;;22.53;68.75;100973.03;4936400;29;20055;-58
2023/06/16 07:50:16;;;;;;;2.38;1.63;;;;;;;22.75;67.07;100963.88;4928145;29;20127;-58
2023/06/16 07:52:41;;;;;;;2.53;1.60;;;;;;;22.58;66.17;100964.31;4932613;29;20051;-57
2023/06/16 07:55:28;;;;;;;2.88;1.50;;;;;;;22.80;66.37;100957.84;4925337;29;20070;-58
2023/06/16 07:57:53;;;;;;;2.38;1.48;;;;;;;22.90;65.40;100959.56;4871033;29;20090;-58
2023/06/16 08:00:20;;;;;;;4.50;2.17;;;;;;;22.95;64.45;100961.81;4897822;29;20043;-54
2023/06/16 08:02:46;;;;;;;3.75;1.80;;;;;;;22.34;65.44;100960.91;4931007;29;20054;-57
2023/06/16 08:05:12;;;;;;;4.28;1.75;;;;;;;22.18;68.28;100945.19;4937793;29;20027;-61
2023/06/16 08:07:38;;;;;;;1.92;1.35;;;;;;;22.34;68.29;100945.22;4929028;29;20051;-58
2023/06/16 08:10:05;;;;;;;3.25;1.98;;;;;;;22.69;66.15;100945.59;4926022;29;20043;-59
2023/06/16 08:16:17;;;;;;;3.75;1.63;;;;;;;22.70;66.14;100927.91;4926065;29;20098;-58
2023/06/16 08:18:42;;;;;;;2.70;1.50;;;;;;;22.59;67.12;100922.69;4929716;29;20701;-55
2023/06/16 08:21:08;;;;;;;4.60;1.50;;;;;;;22.66;68.43;100922.53;4910369;29;20043;-59
2023/06/16 08:23:33;;;;;;;2.10;1.40;;;;;;;22.74;68.67;100928.59;4929861;29;20498;-59
2023/06/16 08:26:04;;;;;;;3.65;1.73;;;;;;;22.51;67.13;100926.78;4930084;29;20495;-57
2023/06/16 08:28:30;;;;;;;2.08;1.40;;;;;;;22.75;66.91;100932.88;4925010;29;20131;-60
2023/06/16 08:30:56;;;;;;;3.53;1.73;;;;;;;22.67;66.15;100929.53;4922742;29;20655;-52
2023/06/16 08:33:21;;;;;;;1.83;1.40;;;;;;;22.85;66.76;100940.09;4915814;29;20052;-58
2023/06/16 08:35:46;;;;;;;2.95;2.10;;;;;;;23.04;64.73;100930.94;4979986;28;20046;-56
2023/06/16 08:38:12;;;;;;;2.90;1.80;;;;;;;23.10;62.79;100941.00;4986474;28;20033;-55
2023/06/16 08:40:38;;;;;;;3.05;1.40;;;;;;;23.11;61.94;100931.53;4990896;28;20238;-52
2023/06/16 08:43:11;;;;;;;2.17;1.42;;;;;;;23.08;61.89;100926.91;4991158;28;20038;-54
2023/06/16 08:45:37;;;;;;;2.50;1.70;;;;;;;23.06;62.65;100936.78;4983142;28;20037;-59
2023/06/16 08:48:04;;;;;;;2.47;1.63;;;;;;;23.02;63.17;100936.88;4989439;28;20067;-57
2023/06/16 08:50:30;;;;;;;2.30;1.55;;;;;;;23.09;62.99;100933.19;4995232;28;20067;-58
2023/06/16 08:52:58;;;;;;;2.83;1.73;;;;;;;23.19;63.28;100926.59;4989598;28;20123;-60
2023/06/16 08:55:27;;;;;;;3.63;1.38;;;;;;;23.14;64.01;100919.69;4987248;28;20030;-60
2023/06/16 08:58:15;;;;;;;2.20;1.40;;;;;;;23.19;63.61;100919.13;4969827;28;20066;-55
2023/06/16 09:00:41;;;;;;;3.40;1.92;;;;;;;23.10;64.23;100908.00;4920114;29;20700;-57
2023/06/16 09:03:08;;;;;;;3.83;1.77;;;;;;;23.04;64.32;100903.47;4924499;29;20112;-60
2023/06/16 09:05:36;;;;;;;4.47;2.15;;;;;;;23.02;64.48;100895.66;4935392;29;20260;-60
2023/06/16 09:08:03;;;;;;;2.72;1.35;;;;;;;23.05;65.64;100888.53;4930164;29;20434;-60
2023/06/16 09:10:28;;;;;;;2.53;1.65;;;;;;;23.00;66.91;100891.78;4925279;29;20039;-60
2023/06/16 09:12:59;;;;;;;4.13;1.95;;;;;;;23.01;68.93;100885.13;4929141;29;20422;-55
2023/06/16 09:15:25;;;;;;;1.98;1.38;;;;;;;23.03;69.28;100880.72;4928982;29;20034;-51
2023/06/16 09:17:51;;;;;;;2.80;1.73;;;;;;;22.97;70.38;100884.44;4927039;29;20039;-56
2023/06/16 09:20:18;;;;;;;4.72;1.90;;;;;;;22.99;70.56;100874.56;4925642;29;20046;-60
2023/06/16 09:22:49;;;;;;;2.60;1.90;;;;;;;22.92;71.32;100871.97;4931921;29;20027;-59
2023/06/16 09:25:16;;;;;;;4.65;1.90;;;;;;;23.05;70.71;100878.28;4931124;29;20199;-53
2023/06/16 09:27:49;;;;;;;4.53;1.90;;;;;;;23.04;70.70;100870.50;4919777;29;20412;-54
2023/06/16 09:30:21;;;;;;;2.35;1.83;;;;;;;23.11;70.33;100871.06;4926277;29;20410;-59
2023/06/16 09:32:53;;;;;;;4.32;2.45;;;;;;;23.08;70.58;100869.19;4927907;29;20075;-56
2023/06/16 09:35:21;;;;;;;3.63;2.20;;;;;;;23.00;70.61;100870.59;4930543;29;20119;-58
2023/06/16 09:37:48;;;;;;;3.97;2.25;;;;;;;23.01;70.41;100866.66;4956861;28;20084;-58
2023/06/16 09:40:15;;;;;;;2.60;1.90;;;;;;;23.03;70.78;100866.22;4993096;28;20615;-57
2023/06/16 09:42:43;;;;;;;5.97;2.50;;;;;;;23.11;71.01;100870.31;4990943;28;20034;-56
2023/06/16 09:45:13;;;;;;;3.38;1.98;;;;;;;23.16;71.02;100878.78;4987089;28;20172;-60
2023/06/16 09:47:44;;;;;;;3.72;1.95;;;;;;;23.24;70.53;100879.38;4983165;28;20028;-55
2023/06/16 09:50:14;;;;;;;4.15;1.95;;;;;;;23.40;70.34;100881.31;4981340;28;20047;-58
2023/06/16 09:52:43;;;;;;;3.55;1.85;;;;;;;23.55;69.96;100877.72;4975147;28;20455;-60
2023/06/16 09:55:11;;;;;;;5.22;2.05;;;;;;;23.60;69.36;100870.88;4988973;28;20104;-57
2023/06/16 09:57:38;;;;;;;2.58;1.75;;;;;;;23.66;69.36;100866.38;4987658;28;20712;-51
2023/06/16 10:00:09;;;;;;;3.97;2.20;;;;;;;23.87;68.35;100868.47;4988499;28;20034;-54
2023/06/16 10:02:35;;;;;;;1.77;1.60;;;;;;;24.00;67.33;100861.00;4988174;28;20441;-56
2023/06/16 10:05:08;;;;;;;2.72;1.70;;;;;;;24.03;67.01;100868.41;4987424;28;20436;-60
2023/06/16 10:07:34;;;;;;;3.92;1.83;;;;;;;24.04;66.17;100865.19;4986298;28;20042;-60
2023/06/16 10:10:01;;;;;;;3.55;1.88;;;;;;;24.07;65.86;100863.56;4986542;28;20034;-56
2023/06/16 10:12:27;;;;;;;2.17;1.63;;;;;;;24.07;65.30;100860.81;4969894;28;20080;-57
2023/06/16 10:14:56;;;;;;;1.90;1.52;;;;;;;24.13;64.45;100864.56;4990601;28;20054;-60
2023/06/16 10:17:22;;;;;;;4.15;2.40;;;;;;;24.11;63.42;100853.22;4986894;28;20688;-60
2023/06/16 10:19:52;;;;;;;3.65;1.85;;;;;;;24.00;63.81;100866.53;4987302;28;20059;-56
2023/06/16 10:22:17;;;;;;;3.03;1.90;;;;;;;24.01;64.01;100862.53;4989128;28;20030;-54
2023/06/16 10:24:43;;;;;;;2.65;1.65;;;;;;;24.10;64.08;100865.41;4991647;28;20041;-57
2023/06/16 10:27:12;;;;;;;2.95;1.75;;;;;;;24.13;63.74;100862.56;4984459;28;20037;-60
2023/06/16 10:29:39;;;;;;;4.25;2.00;;;;;;;24.14;63.79;100874.34;4961656;28;20038;-60
2023/06/16 10:32:06;;;;;;;3.08;1.92;;;;;;;24.06;63.98;100876.53;4980611;28;20030;-60
2023/06/16 10:34:46;;;;;;;2.55;1.80;;;;;;;24.05;63.76;100883.28;4990111;28;20109;-59
2023/06/16 10:37:14;;;;;;;2.42;1.65;;;;;;;24.09;63.28;100885.91;4985260;28;20037;-57
2023/06/16 10:39:44;;;;;;;4.45;1.65;;;;;;;24.07;63.67;100891.09;4972420;28;20489;-60
2023/06/16 10:42:13;;;;;;;3.60;1.60;;;;;;;24.04;63.55;100883.72;4975763;28;20053;-61
2023/06/16 10:44:40;;;;;;;3.60;1.95;;;;;;;24.12;62.55;100877.53;4993330;22;20034;-57
2023/06/16 10:47:08;;;;;;;1.75;1.35;;;;;;;24.20;62.70;100885.59;4985188;28;20065;-57
2023/06/16 10:49:43;;;;;;;1.90;1.48;;;;;;;24.28;63.13;100879.41;4990412;28;20034;-56
2023/06/16 10:52:09;;;;;;;2.95;1.90;;;;;;;24.30;63.49;100882.47;4986799;28;20049;-55
2023/06/16 10:54:37;;;;;;;2.88;1.73;;;;;;;24.32;63.00;100882.81;4988216;28;20018;-56
2023/06/16 10:57:02;;;;;;;2.28;1.58;;;;;;;24.43;62.90;100885.97;4988156;28;20042;-55
2023/06/16 10:59:28;;;;;;;4.25;1.88;;;;;;;24.41;63.72;100882.16;4982594;28;20030;-55
2023/06/16 11:01:57;;;;;;;3.42;1.90;;;;;;;24.42;64.87;100886.44;4985016;28;20037;-58
2023/06/16 11:04:24;;;;;;;3.08;1.70;;;;;;;24.43;64.33;100874.97;4985883;28;20038;-58
2023/06/16 11:07:16;;;;;;;4.20;2.25;;;;;;;24.51;64.53;100881.00;4988165;28;20165;-56
2023/06/16 11:09:41;;;;;;;1.77;1.60;;;;;;;24.58;64.56;100886.28;4984591;28;20050;-59
2023/06/16 11:12:07;;;;;;;2.40;1.77;;;;;;;24.60;64.36;100890.13;4985982;28;20041;-59
2023/06/16 11:14:33;;;;;;;3.30;1.80;;;;;;;24.63;64.96;100886.50;4987014;28;20027;-58
2023/06/16 11:16:59;;;;;;;2.05;1.60;;;;;;;24.62;65.23;100895.22;4985426;28;20146;-57
2023/06/16 11:19:24;;;;;;;2.45;1.70;;;;;;;24.59;64.75;100893.31;4963571;28;20043;-57
2023/06/16 11:21:50;;;;;;;2.88;1.75;;;;;;;24.63;64.83;100903.03;4987882;28;20026;-57
2023/06/16 11:24:17;;;;;;;2.28;1.48;;;;;;;24.62;65.66;100909.00;4974305;28;20037;-57
2023/06/16 11:26:43;;;;;;;2.33;1.70;;;;;;;24.56;65.66;100900.50;4982128;28;20027;-58
2023/06/16 11:29:08;;;;;;;2.28;1.65;;;;;;;24.53;66.50;100906.13;4976116;28;20038;-57
2023/06/16 11:31:37;;;;;;;1.75;1.25;;;;;;;24.54;65.91;100897.44;4976098;28;20049;-57